createdAt,value
2022-12-25T00:01:28.336Z,4.78
2022-12-25T00:03:56.845Z,4.10
2022-12-25T00:06:23.696Z,5.50
2022-12-25T00:08:50.287Z,5.15
2022-12-25T00:11:19.457Z,3.65
2022-12-25T00:13:46.128Z,3.80
2022-12-25T00:16:17.914Z,4.45
2022-12-25T00:18:44.891Z,4.30
2022-12-25T00:21:11.809Z,5.90
2022-12-25T00:23:38.419Z,5.10
2022-12-25T00:26:06.495Z,3.78
2022-12-25T00:28:33.111Z,3.55
2022-12-25T00:30:59.783Z,4.68
2022-12-25T00:33:26.456Z,3.08
2022-12-25T00:36:00.263Z,4.60
2022-12-25T00:38:27.055Z,3.95
2022-12-25T00:40:53.822Z,3.58
2022-12-25T00:43:20.611Z,5.05
2022-12-25T00:45:56.372Z,4.30
2022-12-25T00:48:23.174Z,4.75
2022-12-25T00:50:53.620Z,4.32
2022-12-25T00:53:20.206Z,5.05
2022-12-25T00:55:52.240Z,3.17
2022-12-25T00:58:18.899Z,3.05
2022-12-25T01:00:45.544Z,3.10
2022-12-25T01:03:12.178Z,5.35
2022-12-25T01:05:38.882Z,4.10
2022-12-25T01:08:05.510Z,3.97
2022-12-25T01:10:32.170Z,3.22
2022-12-25T01:12:58.796Z,4.75
2022-12-25T01:15:25.625Z,4.68
2022-12-25T01:17:52.236Z,3.78
2022-12-25T01:20:18.916Z,8.80
2022-12-25T01:22:45.685Z,2.50
2022-12-25T01:25:12.522Z,3.13
2022-12-25T01:27:40.676Z,2.42
2022-12-25T01:30:07.779Z,3.35
2022-12-25T01:32:34.427Z,3.33
2022-12-25T01:35:01.110Z,2.83
2022-12-25T01:37:27.713Z,2.15
2022-12-25T01:39:54.295Z,4.50
2022-12-25T01:42:21.812Z,2.15
2022-12-25T01:47:29.634Z,1.98
2022-12-25T01:49:56.204Z,1.88
2022-12-25T01:52:24.656Z,1.20
2022-12-25T01:55:00.375Z,3.28
2022-12-25T01:57:30.854Z,1.90
2022-12-25T01:59:57.705Z,1.80
2022-12-25T02:02:24.461Z,1.42
2022-12-25T02:04:54.272Z,2.17
2022-12-25T02:07:23.011Z,1.05
2022-12-25T02:09:49.969Z,1.60
2022-12-25T02:12:19.962Z,1.92
2022-12-25T02:14:46.596Z,1.38
2022-12-25T02:17:23.989Z,2.22
2022-12-25T02:20:30.471Z,2.88
2022-12-25T02:23:25.121Z,2.65
2022-12-25T02:26:31.601Z,1.98
2022-12-25T02:29:05.345Z,1.25
2022-12-25T02:31:40.013Z,1.13
2022-12-25T02:34:15.837Z,1.25
2022-12-25T02:37:22.322Z,1.33
2022-12-25T02:39:58.831Z,0.90
2022-12-25T02:43:06.309Z,1.85
2022-12-25T02:46:04.084Z,2.53
2022-12-25T02:48:55.223Z,2.15
2022-12-25T02:51:42.720Z,1.17
2022-12-25T02:54:31.982Z,1.10
2022-12-25T02:57:18.639Z,2.30
2022-12-25T03:00:06.619Z,0.70
2022-12-25T03:02:53.386Z,1.30
2022-12-25T03:05:42.017Z,1.05
2022-12-25T03:08:11.432Z,1.27
2022-12-25T03:10:58.855Z,1.20
2022-12-25T03:13:28.811Z,1.30
2022-12-25T03:16:15.382Z,1.35
2022-12-25T03:18:42.022Z,1.20
2022-12-25T03:21:28.549Z,1.33
2022-12-25T03:24:17.595Z,1.27
2022-12-25T03:26:59.315Z,0.88
2022-12-25T03:29:51.808Z,0.75
2022-12-25T03:32:27.314Z,1.05
2022-12-25T03:35:27.512Z,1.08
2022-12-25T03:38:43.092Z,0.82
2022-12-25T03:41:56.529Z,1.27
2022-12-25T03:50:52.616Z,1.33
2022-12-25T03:53:44.532Z,1.30
2022-12-25T03:56:31.094Z,0.77
2022-12-25T03:59:23.457Z,1.10
2022-12-25T04:04:57.804Z,1.20
2022-12-25T04:07:44.542Z,0.85
2022-12-25T04:10:31.208Z,1.00
2022-12-25T04:13:17.755Z,1.95
2022-12-25T04:16:04.457Z,1.33
2022-12-25T04:18:51.038Z,0.70
2022-12-25T04:21:37.578Z,1.42
2022-12-25T04:24:24.465Z,2.20
2022-12-25T04:27:11.029Z,1.23
2022-12-25T04:29:57.534Z,0.70
2022-12-25T04:32:44.063Z,1.00
2022-12-25T04:35:30.686Z,1.55
2022-12-25T04:37:57.390Z,1.08
2022-12-25T04:40:24.033Z,1.08
2022-12-25T04:42:51.327Z,1.17
2022-12-25T04:45:18.024Z,1.25
2022-12-25T04:47:44.608Z,1.83
2022-12-25T04:50:11.251Z,2.28
2022-12-25T04:52:38.705Z,1.17
2022-12-25T04:55:05.566Z,1.77
2022-12-25T04:57:32.803Z,1.92
2022-12-25T04:59:59.377Z,1.15
2022-12-25T05:02:26.274Z,1.23
2022-12-25T05:04:53.045Z,1.17
2022-12-25T05:07:19.604Z,3.08
2022-12-25T05:09:46.177Z,0.95
2022-12-25T05:12:12.808Z,1.48
2022-12-25T05:14:40.032Z,3.00
2022-12-25T05:17:07.879Z,2.08
2022-12-25T05:19:34.824Z,3.38
2022-12-25T05:22:01.393Z,1.95
2022-12-25T05:24:28.016Z,2.35
2022-12-25T05:26:54.886Z,1.40
2022-12-25T05:29:21.560Z,1.60
2022-12-25T05:31:48.193Z,2.40
2022-12-25T05:34:14.816Z,1.50
2022-12-25T05:36:41.463Z,3.20
2022-12-25T05:39:08.101Z,2.33
2022-12-25T05:41:35.125Z,1.90
2022-12-25T05:44:01.972Z,2.28
2022-12-25T05:46:28.674Z,1.92
2022-12-25T05:48:55.391Z,2.55
2022-12-25T05:51:22.059Z,1.80
2022-12-25T05:53:48.733Z,2.65
2022-12-25T05:56:15.335Z,2.95
2022-12-25T05:58:42.018Z,2.45
2022-12-25T06:01:18.176Z,2.60
2022-12-25T06:03:44.957Z,2.35
2022-12-25T06:06:11.673Z,3.17
2022-12-25T06:08:38.283Z,2.55
2022-12-25T06:11:05.633Z,2.60
2022-12-25T06:13:32.934Z,1.95
2022-12-25T06:15:59.680Z,2.22
2022-12-25T06:18:26.673Z,2.05
2022-12-25T06:20:53.333Z,1.77
2022-12-25T06:23:20.004Z,2.60
2022-12-25T06:25:46.662Z,2.08
2022-12-25T06:28:13.315Z,2.28
2022-12-25T06:30:39.905Z,2.50
2022-12-25T06:33:06.541Z,2.83
2022-12-25T06:35:33.126Z,3.33
2022-12-25T06:37:59.706Z,1.50
2022-12-25T06:40:26.302Z,2.60
2022-12-25T06:42:53.122Z,1.80
2022-12-25T06:45:19.667Z,1.80
2022-12-25T06:47:46.309Z,1.35
2022-12-25T06:50:13.009Z,1.58
2022-12-25T06:52:39.649Z,2.50
2022-12-25T06:55:06.661Z,1.52
2022-12-25T06:57:33.314Z,2.55
2022-12-25T06:59:59.966Z,3.75
2022-12-25T07:02:26.717Z,3.33
2022-12-25T07:04:53.510Z,2.10
2022-12-25T07:07:21.076Z,4.13
2022-12-25T07:09:47.702Z,1.10
2022-12-25T07:12:19.909Z,1.40
2022-12-25T07:14:48.908Z,1.10
2022-12-25T07:17:17.087Z,2.60
2022-12-25T07:19:45.433Z,3.08
2022-12-25T07:22:12.588Z,1.45
2022-12-25T07:24:39.190Z,1.42
2022-12-25T07:27:05.835Z,1.75
2022-12-25T07:29:32.430Z,1.65
2022-12-25T07:31:59.140Z,1.77
2022-12-25T07:34:26.056Z,1.60
2022-12-25T07:36:54.591Z,2.05
2022-12-25T07:39:21.159Z,2.75
2022-12-25T07:41:47.837Z,2.17
2022-12-25T07:44:14.804Z,1.42
2022-12-25T07:46:41.396Z,2.97
2022-12-25T07:49:08.033Z,2.35
2022-12-25T07:51:34.712Z,1.02
2022-12-25T07:54:01.302Z,2.10
2022-12-25T07:56:28.171Z,0.95
2022-12-25T07:58:54.761Z,1.95
2022-12-25T08:01:23.897Z,4.32
2022-12-25T08:03:51.856Z,6.95
2022-12-25T08:06:18.821Z,1.23
2022-12-25T08:08:45.664Z,2.42
2022-12-25T08:11:12.331Z,1.63
2022-12-25T08:13:39.063Z,3.58
2022-12-25T08:16:08.482Z,2.30
2022-12-25T08:18:35.412Z,3.25
2022-12-25T08:21:03.494Z,1.63
2022-12-25T08:23:30.168Z,3.10
2022-12-25T08:26:05.090Z,4.60
2022-12-25T08:28:32.730Z,1.75
2022-12-25T08:30:59.376Z,1.35
2022-12-25T08:33:25.993Z,2.55
2022-12-25T08:35:52.582Z,2.72
2022-12-25T08:38:19.247Z,6.95
2022-12-25T08:40:45.857Z,3.38
2022-12-25T08:43:12.508Z,1.58
2022-12-25T08:45:39.160Z,1.70
2022-12-25T08:48:05.901Z,1.65
2022-12-25T08:50:32.549Z,2.15
2022-12-25T08:52:59.287Z,2.28
2022-12-25T08:55:25.929Z,1.45
2022-12-25T08:57:53.929Z,1.75
2022-12-25T09:00:20.768Z,2.17
2022-12-25T09:02:47.526Z,1.83
2022-12-25T09:05:14.292Z,1.65
2022-12-25T09:07:40.880Z,2.95
2022-12-25T09:10:08.002Z,3.05
2022-12-25T09:12:34.596Z,1.77
2022-12-25T09:15:01.225Z,2.33
2022-12-25T09:17:27.872Z,1.42
2022-12-25T09:19:54.502Z,1.52
2022-12-25T09:22:21.132Z,4.38
2022-12-25T09:24:47.759Z,4.00
2022-12-25T09:27:14.362Z,3.90
2022-12-25T09:29:40.964Z,2.22
2022-12-25T09:32:08.386Z,1.67
2022-12-25T09:34:35.276Z,3.80
2022-12-25T09:37:02.119Z,3.70
2022-12-25T09:39:28.759Z,3.78
2022-12-25T09:42:00.215Z,2.40
2022-12-25T09:44:30.667Z,1.25
2022-12-25T09:47:01.601Z,2.30
2022-12-25T09:49:51.051Z,2.55
2022-12-25T09:52:20.973Z,1.23
2022-12-25T09:55:14.762Z,2.17
2022-12-25T09:57:45.232Z,1.80
2022-12-25T10:00:15.364Z,2.53
2022-12-25T10:03:06.463Z,2.72
2022-12-25T10:06:04.145Z,2.90
2022-12-25T10:11:42.728Z,1.27
2022-12-25T10:14:49.277Z,4.97
2022-12-25T10:17:38.983Z,1.58
2022-12-25T10:20:36.126Z,1.95
2022-12-25T10:23:03.930Z,3.83
2022-12-25T10:25:30.557Z,2.80
2022-12-25T10:28:01.032Z,1.85
2022-12-25T10:30:28.411Z,3.35
2022-12-25T10:32:57.050Z,1.15
2022-12-25T10:35:24.942Z,1.15
2022-12-25T10:38:14.256Z,1.48
2022-12-25T10:41:13.363Z,2.13
2022-12-25T10:43:43.535Z,2.15
2022-12-25T10:46:12.430Z,1.70
2022-12-25T10:48:43.781Z,1.15
2022-12-25T10:51:10.516Z,1.42
2022-12-25T10:53:40.417Z,1.35
2022-12-25T10:56:07.682Z,1.15
2022-12-25T10:58:34.403Z,2.05
2022-12-25T11:01:06.193Z,2.10
2022-12-25T11:03:35.767Z,3.17
2022-12-25T11:06:02.774Z,3.15
2022-12-25T11:08:33.430Z,2.58
2022-12-25T11:11:06.025Z,4.00
2022-12-25T11:16:03.941Z,3.20
2022-12-25T11:18:34.867Z,4.53
2022-12-25T11:21:13.723Z,2.35
2022-12-25T11:23:44.407Z,3.08
2022-12-25T11:26:11.287Z,2.95
2022-12-25T11:28:38.604Z,5.28
2022-12-25T11:31:09.278Z,1.52
2022-12-25T11:33:57.094Z,2.63
2022-12-25T11:39:24.809Z,3.05
2022-12-25T11:41:53.125Z,3.03
2022-12-25T11:44:27.845Z,1.75
2022-12-25T11:46:55.062Z,11.88
2022-12-25T11:49:21.786Z,4.75
2022-12-25T11:51:50.220Z,3.67
2022-12-25T11:54:22.433Z,7.18
2022-12-25T11:56:49.070Z,2.88
2022-12-25T11:59:21.509Z,5.05
2022-12-25T12:01:59.081Z,3.47
2022-12-25T12:04:31.055Z,1.45
2022-12-25T12:10:00.494Z,1.83
2022-12-25T12:12:32.416Z,3.05
2022-12-25T12:15:27.063Z,1.08
2022-12-25T12:17:53.707Z,6.70
2022-12-25T12:20:29.705Z,1.90
2022-12-25T12:22:56.313Z,1.83
2022-12-25T12:25:22.973Z,1.27
2022-12-25T12:27:58.437Z,0.98
2022-12-25T12:30:31.456Z,3.50
2022-12-25T12:32:59.899Z,0.60
2022-12-25T12:35:29.077Z,1.10
2022-12-25T12:37:57.488Z,1.27
2022-12-25T12:40:41.344Z,0.70
2022-12-25T12:46:32.029Z,1.10
2022-12-25T12:49:23.228Z,1.05
2022-12-25T12:51:50.090Z,1.30
2022-12-25T12:54:22.993Z,3.42
2022-12-25T12:57:06.282Z,4.72
2022-12-25T12:59:39.929Z,2.53
2022-12-25T13:05:38.433Z,2.58
2022-12-25T13:10:46.919Z,1.60
2022-12-25T13:13:17.945Z,2.25
2022-12-25T13:15:46.348Z,2.42
2022-12-25T13:18:12.968Z,3.97
2022-12-25T13:20:54.854Z,1.30
2022-12-25T13:23:25.261Z,2.90
2022-12-25T13:25:54.768Z,2.78
2022-12-25T13:28:27.293Z,3.15
2022-12-25T13:30:54.031Z,1.92
2022-12-25T13:33:20.828Z,1.77
2022-12-25T13:35:47.579Z,2.38
2022-12-25T13:38:16.407Z,3.13
2022-12-25T13:41:09.854Z,2.42
2022-12-25T13:43:37.102Z,2.50
2022-12-25T13:46:03.815Z,3.53
2022-12-25T13:48:31.417Z,3.75
2022-12-25T13:50:59.415Z,2.85
2022-12-25T13:53:26.693Z,3.80
2022-12-25T13:55:54.380Z,3.60
2022-12-25T13:58:27.529Z,5.13
2022-12-25T14:00:55.503Z,4.18
2022-12-25T14:03:43.040Z,6.10
2022-12-25T14:08:56.473Z,5.95
2022-12-25T14:11:24.649Z,3.38
2022-12-25T14:13:54.447Z,4.50
2022-12-25T14:16:21.395Z,2.63
2022-12-25T14:18:56.947Z,5.07
2022-12-25T14:24:04.027Z,6.03
2022-12-25T14:26:32.227Z,1.98
2022-12-25T14:31:42.367Z,4.05
2022-12-25T14:34:15.983Z,6.03
2022-12-25T14:36:42.541Z,2.40
2022-12-25T14:39:25.516Z,4.70
2022-12-25T14:44:38.545Z,3.25
2022-12-25T14:47:20.493Z,3.05
2022-12-25T14:49:47.392Z,4.45
2022-12-25T14:52:19.723Z,3.67
2022-12-25T14:54:48.636Z,7.30
2022-12-25T14:57:17.979Z,3.42
2022-12-25T14:59:44.522Z,4.60
2022-12-25T15:02:15.153Z,9.00
2022-12-25T15:04:43.279Z,17.10
2022-12-25T15:07:27.299Z,5.80
2022-12-25T15:10:18.442Z,6.95
2022-12-25T15:12:40.525Z,9.07
2022-12-25T15:15:07.753Z,7.53
2022-12-25T15:17:34.348Z,5.20
2022-12-25T15:20:00.977Z,4.95
2022-12-25T15:22:37.507Z,3.63
2022-12-25T15:25:15.208Z,6.88
2022-12-25T15:27:42.482Z,3.05
2022-12-25T15:30:10.926Z,2.55
2022-12-25T15:32:37.868Z,2.80
2022-12-25T15:35:04.885Z,2.35
2022-12-25T15:37:31.481Z,2.38
2022-12-25T15:39:58.247Z,2.35
2022-12-25T15:42:25.334Z,2.08
2022-12-25T15:44:52.124Z,2.75
2022-12-25T15:47:20.343Z,1.95
2022-12-25T15:49:47.036Z,2.25
2022-12-25T15:52:14.423Z,3.60
2022-12-25T15:54:41.079Z,3.60
2022-12-25T15:57:14.201Z,2.42
2022-12-25T15:59:40.948Z,3.20
2022-12-25T16:02:14.640Z,2.10
2022-12-25T16:04:42.454Z,4.78
2022-12-25T16:07:14.629Z,2.35
2022-12-25T16:09:41.248Z,4.25
2022-12-25T16:12:07.856Z,3.15
2022-12-25T16:14:34.511Z,3.40
2022-12-25T16:17:01.115Z,3.47
2022-12-25T16:19:27.747Z,4.68
2022-12-25T16:21:54.438Z,3.75
2022-12-25T16:24:22.222Z,3.47
2022-12-25T16:26:48.841Z,3.05
2022-12-25T16:29:15.478Z,2.83
2022-12-25T16:31:42.241Z,4.97
2022-12-25T16:34:08.995Z,3.78
2022-12-25T16:36:35.847Z,2.67
2022-12-25T16:39:03.408Z,3.53
2022-12-25T16:41:30.056Z,3.58
2022-12-25T16:43:56.656Z,3.35
2022-12-25T16:46:23.459Z,3.47
2022-12-25T16:48:50.333Z,3.90
2022-12-25T16:51:18.467Z,3.70
2022-12-25T16:53:45.108Z,5.50
2022-12-25T16:56:14.793Z,6.13
2022-12-25T16:58:41.921Z,4.40
2022-12-25T17:01:10.315Z,4.82
2022-12-25T17:03:37.383Z,4.57
2022-12-25T17:06:04.898Z,3.67
2022-12-25T17:08:31.520Z,5.72
2022-12-25T17:10:58.108Z,4.18
2022-12-25T17:13:24.712Z,3.83
2022-12-25T17:15:51.441Z,6.70
2022-12-25T17:18:21.764Z,4.22
2022-12-25T17:20:50.841Z,5.18
2022-12-25T17:23:17.517Z,4.90
2022-12-25T17:25:44.109Z,6.10
2022-12-25T17:28:10.694Z,6.53
2022-12-25T17:30:37.334Z,6.18
2022-12-25T17:33:04.106Z,5.55
2022-12-25T17:35:30.789Z,7.88
2022-12-25T17:37:57.399Z,6.32
2022-12-25T17:40:26.422Z,7.40
2022-12-25T17:42:53.887Z,4.95
2022-12-25T17:45:20.541Z,9.50
2022-12-25T17:47:47.157Z,6.28
2022-12-25T17:50:13.699Z,7.05
2022-12-25T17:52:40.296Z,6.07
2022-12-25T17:55:07.609Z,5.80
2022-12-25T17:57:34.410Z,6.20
2022-12-25T18:00:01.068Z,9.00
2022-12-25T18:02:28.629Z,6.18
2022-12-25T18:04:55.414Z,6.65
2022-12-25T18:07:22.071Z,7.00
2022-12-25T18:09:48.687Z,4.93
2022-12-25T18:12:15.287Z,5.07
2022-12-25T18:14:41.871Z,6.10
2022-12-25T18:17:08.579Z,5.32
2022-12-25T18:19:35.260Z,5.25
2022-12-25T18:22:01.886Z,4.72
2022-12-25T18:24:28.515Z,5.72
2022-12-25T18:26:55.144Z,4.80
2022-12-25T18:29:21.830Z,4.97
2022-12-25T18:31:48.536Z,4.88
2022-12-25T18:34:15.493Z,5.00
2022-12-25T18:36:42.144Z,7.45
2022-12-25T18:39:08.743Z,5.63
2022-12-25T18:41:55.286Z,6.28
2022-12-25T18:44:21.858Z,5.95
2022-12-25T18:46:48.480Z,5.63
2022-12-25T18:49:15.140Z,3.65
2022-12-25T18:51:41.724Z,4.10
2022-12-25T18:54:08.340Z,3.10
2022-12-25T18:56:34.978Z,6.10
2022-12-25T18:59:01.694Z,3.05
2022-12-25T19:01:28.423Z,6.22
2022-12-25T19:04:02.147Z,5.80
2022-12-25T19:06:33.064Z,4.00
2022-12-25T19:08:59.665Z,3.33
2022-12-25T19:11:26.332Z,2.40
2022-12-25T19:13:52.969Z,3.05
2022-12-25T19:16:19.744Z,6.63
2022-12-25T19:18:46.497Z,5.88
2022-12-25T19:21:13.189Z,3.38
2022-12-25T19:23:39.867Z,5.53
2022-12-25T19:26:07.485Z,4.70
2022-12-25T19:28:34.503Z,8.27
2022-12-25T19:31:01.250Z,5.75
2022-12-25T19:33:28.002Z,3.90
2022-12-25T19:35:58.585Z,3.22
2022-12-25T19:38:25.214Z,2.75
2022-12-25T19:41:06.892Z,4.30
2022-12-25T19:43:35.504Z,2.92
2022-12-25T19:46:02.306Z,3.22
2022-12-25T19:48:29.769Z,4.25
2022-12-25T19:50:56.378Z,3.67
2022-12-25T19:53:24.107Z,3.03
2022-12-25T19:55:52.390Z,3.08
2022-12-25T19:58:20.150Z,3.58
2022-12-25T20:00:57.365Z,3.30
2022-12-25T20:03:24.211Z,2.63
2022-12-25T20:05:50.855Z,3.05
2022-12-25T20:08:17.461Z,3.70
2022-12-25T20:10:44.450Z,3.85
2022-12-25T20:13:11.227Z,3.70
2022-12-25T20:15:37.844Z,3.65
2022-12-25T20:18:04.695Z,2.85
2022-12-25T20:20:31.260Z,3.00
2022-12-25T20:23:20.969Z,5.43
2022-12-25T20:25:47.568Z,3.80
2022-12-25T20:28:14.166Z,3.42
2022-12-25T20:30:40.834Z,3.72
2022-12-25T20:33:07.502Z,3.40
2022-12-25T20:35:34.477Z,6.20
2022-12-25T20:38:01.080Z,3.70
2022-12-25T20:40:27.650Z,3.00
2022-12-25T20:42:54.303Z,4.65
2022-12-25T20:45:21.982Z,4.60
2022-12-25T20:47:48.584Z,5.82
2022-12-25T20:50:15.261Z,4.25
2022-12-25T20:52:41.910Z,4.75
2022-12-25T20:55:08.647Z,4.20
2022-12-25T20:57:35.586Z,4.50
2022-12-25T21:00:02.269Z,4.28
2022-12-25T21:02:34.676Z,3.97
2022-12-25T21:05:03.212Z,3.80
2022-12-25T21:07:29.815Z,3.38
2022-12-25T21:09:56.457Z,3.45
2022-12-25T21:12:23.058Z,3.45
2022-12-25T21:14:49.682Z,3.60
2022-12-25T21:17:16.362Z,3.85
2022-12-25T21:19:43.034Z,3.88
2022-12-25T21:22:09.626Z,6.88
2022-12-25T21:24:36.272Z,3.58
2022-12-25T21:27:02.861Z,3.88
2022-12-25T21:29:29.417Z,4.25
2022-12-25T21:32:15.982Z,4.10
2022-12-25T21:34:42.633Z,4.03
2022-12-25T21:37:09.344Z,4.47
2022-12-25T21:39:35.958Z,4.78
2022-12-25T21:42:04.594Z,3.60
2022-12-25T21:44:31.265Z,4.22
2022-12-25T21:46:57.854Z,5.47
2022-12-25T21:49:44.554Z,4.22
2022-12-25T21:52:11.169Z,4.43
2022-12-25T21:54:37.834Z,4.03
2022-12-25T21:57:04.545Z,4.70
2022-12-25T21:59:31.144Z,5.50
2022-12-25T22:02:00.086Z,4.35
2022-12-25T22:04:26.839Z,3.90
2022-12-25T22:07:13.376Z,4.03
2022-12-25T22:09:39.974Z,4.28
2022-12-25T22:12:33.580Z,4.13
2022-12-25T22:15:03.036Z,4.72
2022-12-25T22:17:51.451Z,5.03
2022-12-25T22:20:21.486Z,4.72
2022-12-25T22:22:48.153Z,4.97
2022-12-25T22:25:15.041Z,5.93
2022-12-25T22:27:42.369Z,4.35
2022-12-25T22:30:11.787Z,4.63
2022-12-25T22:32:38.589Z,4.40
2022-12-25T22:35:05.654Z,5.35
2022-12-25T22:37:32.226Z,4.13
2022-12-25T22:40:01.193Z,5.97
2022-12-25T22:42:27.888Z,9.02
2022-12-25T22:44:54.496Z,5.55
2022-12-25T22:47:21.117Z,11.00
2022-12-25T22:49:47.721Z,5.95
2022-12-25T22:52:14.301Z,4.60
2022-12-25T22:54:40.931Z,4.20
2022-12-25T22:57:07.505Z,4.72
2022-12-25T22:59:34.124Z,3.53
2022-12-25T23:02:01.079Z,4.60
2022-12-25T23:04:28.363Z,3.90
2022-12-25T23:06:55.059Z,3.67
2022-12-25T23:09:24.802Z,4.25
2022-12-25T23:11:51.688Z,4.88
2022-12-25T23:14:38.283Z,4.32
2022-12-25T23:17:05.869Z,4.10
2022-12-25T23:19:52.485Z,4.70
2022-12-25T23:22:39.062Z,3.55
2022-12-25T23:25:28.929Z,4.20
2022-12-25T23:27:55.530Z,4.30
2022-12-25T23:30:22.240Z,5.13
2022-12-25T23:32:48.833Z,4.30
2022-12-25T23:35:16.554Z,4.25
2022-12-25T23:37:43.172Z,4.75
2022-12-25T23:40:10.351Z,5.18
2022-12-25T23:42:41.115Z,6.47
2022-12-25T23:45:08.054Z,4.70
2022-12-25T23:47:34.670Z,4.75
2022-12-25T23:50:01.294Z,5.53
2022-12-25T23:52:27.867Z,5.72
2022-12-25T23:54:54.479Z,5.60
2022-12-25T23:57:21.109Z,6.88
2022-12-25T23:59:47.798Z,6.55
